Time;durP1;ratioP1;P1;durP2;ratioP2;P2;SDS_P1;SDS_P2;PMS_P1;PMS_P2;Temp;Humidity;BMP_temperature;BMP_pressure;BME280_temperature;BME280_humidity;BME280_pressure;Samples;Min_cycle;Max_cycle;Signal;HPM_P1;HPM_P2
2021/05/30 02:58:45;;;;;;;13.77;12.87;;;7.90;99.90;;;;;;5369128;23;20966;-69
2021/05/30 03:01:11;;;;;;;14.50;13.47;;;7.90;99.90;;;;;;4946502;29;20464;-69
2021/05/30 03:03:37;;;;;;;14.10;13.30;;;7.90;99.90;;;;;;4936981;29;20458;-70
2021/05/30 03:06:04;;;;;;;14.23;13.20;;;8.00;99.90;;;;;;4936912;29;20457;-69
2021/05/30 03:08:30;;;;;;;13.03;12.17;;;8.00;99.90;;;;;;4951895;29;20441;-68
2021/05/30 03:10:56;;;;;;;14.50;13.50;;;8.00;99.90;;;;;;4954623;29;20451;-69
2021/05/30 03:13:22;;;;;;;14.13;12.93;;;8.00;99.90;;;;;;4954580;29;20446;-68
2021/05/30 03:15:49;;;;;;;13.70;12.90;;;8.10;99.90;;;;;;4954299;29;20488;-69
2021/05/30 03:18:16;;;;;;;14.57;13.63;;;8.00;99.90;;;;;;4954431;29;20460;-69
2021/05/30 03:20:42;;;;;;;14.53;13.53;;;8.00;99.90;;;;;;4954807;29;20460;-67
2021/05/30 03:23:08;;;;;;;15.20;14.30;;;8.00;99.90;;;;;;4954417;29;20491;-70
2021/05/30 03:25:35;;;;;;;12.67;12.07;;;8.00;99.90;;;;;;4952531;29;20480;-69
2021/05/30 03:28:02;;;;;;;14.23;13.23;;;8.10;99.90;;;;;;4955568;29;20452;-69
2021/05/30 03:30:28;;;;;;;13.87;12.77;;;8.20;99.90;;;;;;4955526;29;20950;-68
2021/05/30 03:32:55;;;;;;;14.03;13.13;;;8.10;99.90;;;;;;4955473;29;20969;-68
2021/05/30 03:35:22;;;;;;;13.40;12.60;;;8.10;99.90;;;;;;4955314;29;20468;-69
2021/05/30 03:37:48;;;;;;;14.13;13.33;;;8.10;99.90;;;;;;4955444;29;20456;-68
2021/05/30 03:40:26;;;;;;;14.10;13.20;;;8.10;99.90;;;;;;4955367;29;20453;-68
2021/05/30 03:42:53;;;;;;;14.03;13.13;;;8.20;99.90;;;;;;4955355;29;20562;-69
2021/05/30 03:45:20;;;;;;;13.80;13.10;;;8.10;99.90;;;;;;4955129;29;20641;-69
2021/05/30 03:47:46;;;;;;;14.03;13.10;;;8.10;99.90;;;;;;4955407;29;20458;-69
2021/05/30 03:50:14;;;;;;;13.67;12.70;;;8.00;99.90;;;;;;4955600;29;20452;-69
2021/05/30 03:52:40;;;;;;;14.20;13.30;;;7.90;99.90;;;;;;4955179;29;20835;-68
2021/05/30 03:55:08;;;;;;;13.47;12.67;;;7.90;99.90;;;;;;4955136;29;20790;-68
2021/05/30 03:57:35;;;;;;;14.87;13.97;;;7.90;99.90;;;;;;4954661;29;20491;-68
2021/05/30 04:00:01;;;;;;;15.53;14.53;;;7.90;99.90;;;;;;4955025;29;20480;-69
2021/05/30 04:02:28;;;;;;;14.07;13.17;;;7.90;99.90;;;;;;4955117;29;20985;-68
2021/05/30 04:04:54;;;;;;;14.50;13.60;;;7.90;99.90;;;;;;4955223;29;20500;-69
2021/05/30 04:07:21;;;;;;;13.53;12.63;;;7.90;99.90;;;;;;4954170;28;20453;-69
2021/05/30 04:09:47;;;;;;;14.03;13.03;;;8.00;99.90;;;;;;4954507;29;20484;-69
2021/05/30 04:12:13;;;;;;;13.40;12.60;;;8.00;99.90;;;;;;4954493;28;20923;-69
2021/05/30 04:14:40;;;;;;;14.47;13.67;;;8.10;99.90;;;;;;4955123;28;20533;-69
2021/05/30 04:17:06;;;;;;;13.67;12.77;;;8.20;99.90;;;;;;4954869;29;20503;-69
2021/05/30 04:19:32;;;;;;;14.43;13.33;;;8.10;99.90;;;;;;4954717;28;20452;-69
2021/05/30 04:21:58;;;;;;;15.13;14.17;;;8.20;99.90;;;;;;4954670;29;20457;-69
2021/05/30 04:24:25;;;;;;;13.47;12.77;;;8.20;99.90;;;;;;4954826;29;20555;-69
2021/05/30 04:26:52;;;;;;;14.33;13.37;;;8.30;99.90;;;;;;4954339;28;20456;-70
2021/05/30 04:29:18;;;;;;;13.83;13.03;;;8.40;99.90;;;;;;4954659;28;20449;-69
2021/05/30 04:31:45;;;;;;;13.70;12.90;;;9.10;99.90;;;;;;4954624;28;20815;-67
2021/05/30 04:34:11;;;;;;;13.60;12.80;;;9.80;99.90;;;;;;4954604;28;20457;-69
2021/05/30 04:36:37;;;;;;;12.27;11.57;;;10.80;99.90;;;;;;4954313;28;20488;-69
2021/05/30 04:39:04;;;;;;;13.53;12.53;;;11.50;99.90;;;;;;4954221;29;20985;-69
2021/05/30 04:41:31;;;;;;;13.47;12.53;;;12.20;99.90;;;;;;4954757;29;20459;-69
2021/05/30 04:43:57;;;;;;;12.90;12.20;;;12.60;99.90;;;;;;4954463;29;20460;-69
2021/05/30 04:46:23;;;;;;;14.30;13.30;;;13.00;99.90;;;;;;4954199;29;20476;-68
2021/05/30 04:48:50;;;;;;;14.47;13.47;;;13.40;99.90;;;;;;4954327;28;20504;-70
2021/05/30 04:51:16;;;;;;;14.20;13.30;;;13.80;99.90;;;;;;4954112;28;20459;-68
2021/05/30 04:53:43;;;;;;;13.13;12.30;;;14.10;99.90;;;;;;4953917;28;20448;-70
2021/05/30 04:56:11;;;;;;;13.57;12.67;;;14.20;99.90;;;;;;4954184;28;20493;-69
2021/05/30 04:58:38;;;;;;;13.40;12.60;;;14.60;99.90;;;;;;4953859;28;20493;-69
2021/05/30 05:01:07;;;;;;;12.40;11.70;;;15.10;99.90;;;;;;4954034;28;20484;-69
2021/05/30 05:03:33;;;;;;;13.67;12.87;;;15.50;99.90;;;;;;4953905;28;20460;-69
2021/05/30 05:06:00;;;;;;;12.93;12.13;;;15.70;99.90;;;;;;4953879;29;20499;-67
2021/05/30 05:08:26;;;;;;;14.63;13.73;;;15.90;99.90;;;;;;4953808;28;20504;-67
2021/05/30 05:10:53;;;;;;;13.63;12.73;;;16.20;99.90;;;;;;4953624;29;20495;-68
2021/05/30 05:13:20;;;;;;;13.20;12.50;;;16.40;99.40;;;;;;4953966;28;20463;-70
2021/05/30 05:15:48;;;;;;;12.90;12.20;;;16.50;98.70;;;;;;4953431;28;20737;-70
2021/05/30 05:18:16;;;;;;;13.27;12.37;;;16.80;98.40;;;;;;4953318;28;20456;-68
2021/05/30 05:20:43;;;;;;;13.10;12.40;;;17.20;97.50;;;;;;4953328;28;20452;-69
2021/05/30 05:23:11;;;;;;;13.87;13.07;;;17.60;96.60;;;;;;4953427;29;20453;-69
2021/05/30 05:25:37;;;;;;;12.70;12.10;;;17.90;95.80;;;;;;4953363;28;20488;-70
2021/05/30 05:28:05;;;;;;;12.90;12.00;;;17.80;95.50;;;;;;4953278;29;20539;-71
2021/05/30 05:30:32;;;;;;;12.60;11.87;;;17.90;95.70;;;;;;4952447;28;20482;-70
2021/05/30 05:33:00;;;;;;;12.60;11.80;;;18.20;95.00;;;;;;4952873;29;20452;-70
2021/05/30 05:35:26;;;;;;;13.20;12.50;;;18.50;94.10;;;;;;4952584;29;20899;-70
2021/05/30 05:37:54;;;;;;;13.40;12.50;;;18.80;93.50;;;;;;4952492;29;20452;-70
2021/05/30 05:40:20;;;;;;;14.53;13.63;;;19.10;93.00;;;;;;4952344;29;20461;-70
2021/05/30 05:42:46;;;;;;;15.70;14.70;;;19.40;92.50;;;;;;4952185;29;20567;-70
2021/05/30 05:45:14;;;;;;;16.00;15.07;;;19.10;92.80;;;;;;4952609;29;20595;-71
2021/05/30 05:47:42;;;;;;;16.00;15.00;;;19.30;92.10;;;;;;4952421;29;20630;-70
2021/05/30 05:50:10;;;;;;;13.47;12.43;;;19.40;92.00;;;;;;4952280;29;21026;-71
2021/05/30 05:52:38;;;;;;;15.00;14.20;;;19.60;91.90;;;;;;4952422;28;20460;-71
2021/05/30 05:55:05;;;;;;;14.23;13.33;;;20.00;91.10;;;;;;4952294;28;20479;-70
2021/05/30 05:57:31;;;;;;;13.50;12.70;;;19.70;91.10;;;;;;4951814;29;20506;-70
2021/05/30 05:59:57;;;;;;;12.87;12.27;;;19.80;90.60;;;;;;4952391;29;20977;-70
2021/05/30 06:02:24;;;;;;;13.13;12.40;;;20.20;90.10;;;;;;4952195;29;20453;-70
2021/05/30 06:04:50;;;;;;;12.47;11.77;;;20.20;89.80;;;;;;4952069;29;20456;-70
2021/05/30 06:07:17;;;;;;;13.57;12.87;;;20.30;88.60;;;;;;4952112;29;20447;-70
2021/05/30 06:09:43;;;;;;;13.37;12.77;;;20.70;85.90;;;;;;4948204;28;20452;-70
2021/05/30 06:12:10;;;;;;;13.30;12.50;;;20.70;86.60;;;;;;4950823;28;20556;-70
2021/05/30 06:14:36;;;;;;;12.10;11.50;;;20.90;85.10;;;;;;4952037;29;20519;-70
2021/05/30 06:17:03;;;;;;;12.80;12.10;;;21.30;85.00;;;;;;4952393;29;20488;-70
2021/05/30 06:19:29;;;;;;;12.47;11.93;;;20.80;83.90;;;;;;4952521;29;20951;-70
2021/05/30 06:21:55;;;;;;;13.17;12.57;;;21.10;84.20;;;;;;4952602;29;20444;-69
2021/05/30 06:24:22;;;;;;;12.03;11.43;;;21.40;81.00;;;;;;4952497;29;20801;-70
2021/05/30 06:26:49;;;;;;;12.83;12.23;;;21.70;79.60;;;;;;4952403;29;20456;-70
2021/05/30 06:29:15;;;;;;;12.00;11.40;;;21.90;78.50;;;;;;4952382;28;20453;-69
2021/05/30 06:31:41;;;;;;;12.40;11.73;;;22.30;77.20;;;;;;4951876;28;20460;-69
2021/05/30 06:34:13;;;;;;;12.43;11.83;;;22.80;75.40;;;;;;4952303;28;20463;-69
2021/05/30 06:36:39;;;;;;;12.23;11.53;;;22.50;75.30;;;;;;4952323;29;20563;-70
2021/05/30 06:39:05;;;;;;;11.50;11.00;;;22.80;75.50;;;;;;4952106;28;20951;-70
2021/05/30 06:41:33;;;;;;;11.80;11.30;;;23.50;74.10;;;;;;4952335;29;20453;-69
2021/05/30 06:43:59;;;;;;;11.50;11.00;;;23.90;71.60;;;;;;4952183;28;20586;-70
2021/05/30 06:46:26;;;;;;;11.87;11.30;;;24.50;68.90;;;;;;4952527;29;20453;-70
2021/05/30 06:48:52;;;;;;;11.60;11.00;;;24.90;67.70;;;;;;4952137;29;20950;-70
2021/05/30 06:51:20;;;;;;;12.57;11.70;;;24.70;67.50;;;;;;4952096;28;20472;-70
2021/05/30 06:53:47;;;;;;;12.07;11.47;;;24.70;67.30;;;;;;4952213;28;20483;-69
2021/05/30 06:56:14;;;;;;;12.20;11.50;;;24.20;66.50;;;;;;4951931;28;20496;-70
2021/05/30 06:58:42;;;;;;;12.23;11.73;;;23.70;68.00;;;;;;4952165;28;20519;-70
2021/05/30 07:01:08;;;;;;;11.00;10.60;;;24.10;67.10;;;;;;4952350;29;20820;-70
2021/05/30 07:03:34;;;;;;;12.10;11.50;;;24.00;68.00;;;;;;4952090;28;20495;-70
2021/05/30 07:06:01;;;;;;;11.73;11.30;;;24.20;65.80;;;;;;4951930;29;20810;-70
2021/05/30 07:08:27;;;;;;;12.53;11.90;;;23.60;67.60;;;;;;4952246;29;20463;-70
2021/05/30 07:10:53;;;;;;;12.30;11.77;;;23.10;68.70;;;;;;4952120;29;20452;-69
2021/05/30 07:13:20;;;;;;;11.43;10.83;;;23.00;68.60;;;;;;4951850;29;20459;-69
2021/05/30 07:15:48;;;;;;;11.30;10.80;;;22.60;68.90;;;;;;4951997;28;20862;-70
2021/05/30 07:18:14;;;;;;;12.70;12.00;;;22.20;71.90;;;;;;4952149;28;20951;-72
2021/05/30 07:20:43;;;;;;;11.50;11.00;;;22.40;71.10;;;;;;4952369;29;20453;-72
2021/05/30 07:23:09;;;;;;;12.23;11.73;;;22.50;69.10;;;;;;4952090;28;20453;-69
2021/05/30 07:25:35;;;;;;;12.27;11.47;;;23.00;68.90;;;;;;4951916;29;20449;-70
2021/05/30 07:28:01;;;;;;;11.70;11.10;;;23.00;66.20;;;;;;4951725;29;20453;-70
2021/05/30 07:30:28;;;;;;;11.20;10.73;;;23.30;66.40;;;;;;4952001;28;20468;-70
2021/05/30 07:32:55;;;;;;;11.53;10.90;;;23.20;66.60;;;;;;4952004;29;20459;-70
2021/05/30 07:35:21;;;;;;;11.97;11.37;;;23.30;66.80;;;;;;4952079;28;20464;-72
2021/05/30 07:37:47;;;;;;;12.67;11.90;;;23.50;65.40;;;;;;4951944;28;20495;-72
2021/05/30 07:40:14;;;;;;;12.30;11.80;;;23.00;66.20;;;;;;4952042;28;20460;-69
2021/05/30 07:42:40;;;;;;;12.93;12.43;;;23.30;65.10;;;;;;4953243;28;20468;-70
2021/05/30 07:45:08;;;;;;;11.90;11.40;;;23.80;64.80;;;;;;4955189;29;20463;-70
2021/05/30 07:47:34;;;;;;;11.50;11.00;;;24.00;62.80;;;;;;4955210;28;20448;-70
2021/05/30 07:50:01;;;;;;;11.10;10.70;;;23.80;63.20;;;;;;4955108;28;20464;-70
2021/05/30 07:52:28;;;;;;;12.53;12.03;;;23.80;61.50;;;;;;4955562;29;20825;-72
2021/05/30 07:54:54;;;;;;;12.10;11.50;;;23.70;62.60;;;;;;4955376;29;20452;-72
2021/05/30 07:57:20;;;;;;;12.07;11.37;;;23.00;61.80;;;;;;4955082;28;20496;-72
2021/05/30 07:59:46;;;;;;;11.20;10.80;;;22.00;63.40;;;;;;4954971;29;20452;-72
2021/05/30 08:02:12;;;;;;;11.27;10.57;;;21.70;63.60;;;;;;4955143;28;20463;-72
2021/05/30 08:04:38;;;;;;;11.03;10.40;;;22.10;64.00;;;;;;4955046;28;20464;-71
2021/05/30 08:07:06;;;;;;;10.93;10.43;;;21.80;62.70;;;;;;4954909;29;20448;-71
2021/05/30 08:09:32;;;;;;;10.50;10.00;;;21.30;62.10;;;;;;4954861;29;20453;-71
2021/05/30 08:11:58;;;;;;;12.07;11.40;;;21.20;63.30;;;;;;4954819;28;20465;-70
2021/05/30 08:14:25;;;;;;;10.73;10.23;;;21.10;63.30;;;;;;4954336;28;20500;-69
2021/05/30 08:16:52;;;;;;;11.30;10.70;;;21.00;62.40;;;;;;4954497;28;21006;-69
2021/05/30 08:19:18;;;;;;;10.87;10.20;;;21.00;63.00;;;;;;4954503;28;20460;-70
2021/05/30 08:21:45;;;;;;;11.03;10.53;;;21.10;63.70;;;;;;4954717;28;20459;-70
2021/05/30 08:24:12;;;;;;;11.10;10.60;;;21.50;62.70;;;;;;4954815;28;20452;-70
2021/05/30 08:26:39;;;;;;;11.07;10.57;;;22.00;61.80;;;;;;4951085;28;20457;-70
2021/05/30 08:29:05;;;;;;;10.60;10.17;;;23.10;59.30;;;;;;4943808;29;20453;-70
2021/05/30 08:31:31;;;;;;;10.20;9.80;;;23.20;57.20;;;;;;4944342;29;20448;-70
2021/05/30 08:33:57;;;;;;;11.33;10.73;;;23.20;56.40;;;;;;4954712;28;20460;-70
2021/05/30 08:36:24;;;;;;;11.03;10.53;;;23.00;57.40;;;;;;4940675;29;20488;-70
2021/05/30 08:38:50;;;;;;;11.83;11.17;;;22.80;58.60;;;;;;4935331;29;20460;-70
2021/05/30 08:41:19;;;;;;;11.70;11.03;;;23.50;55.60;;;;;;4935174;29;20813;-70
2021/05/30 08:43:45;;;;;;;11.57;11.07;;;23.60;54.40;;;;;;4939765;29;20453;-70
2021/05/30 08:46:12;;;;;;;11.07;10.50;;;23.70;54.70;;;;;;4954410;29;20445;-70
2021/05/30 08:48:38;;;;;;;12.10;11.50;;;23.40;56.10;;;;;;4954378;29;20455;-70
2021/05/30 08:51:05;;;;;;;11.23;10.73;;;23.30;56.50;;;;;;4952174;29;20480;-70
2021/05/30 08:53:33;;;;;;;10.67;10.13;;;23.20;55.60;;;;;;4953740;28;20457;-70
2021/05/30 08:56:00;;;;;;;11.57;11.07;;;23.20;55.40;;;;;;4934860;29;20493;-70
2021/05/30 08:58:38;;;;;;;11.77;11.17;;;23.50;54.00;;;;;;4939908;29;20476;-69
2021/05/30 09:01:09;;;;;;;11.00;10.30;;;23.20;54.50;;;;;;4954373;29;20463;-69
2021/05/30 09:03:50;;;;;;;11.47;10.97;;;23.10;53.50;;;;;;4953372;28;20468;-69
2021/05/30 09:06:18;;;;;;;10.93;10.40;;;23.20;54.10;;;;;;4953683;28;20456;-69
2021/05/30 09:08:44;;;;;;;10.80;10.40;;;23.00;52.10;;;;;;4953395;29;20448;-69
2021/05/30 09:11:11;;;;;;;11.50;11.00;;;23.90;52.70;;;;;;4953751;28;20947;-70
2021/05/30 09:13:54;;;;;;;11.80;11.27;;;25.00;51.20;;;;;;4953575;28;20488;-69
2021/05/30 09:16:21;;;;;;;11.93;11.40;;;25.60;50.60;;;;;;4953305;29;20496;-70
2021/05/30 09:18:48;;;;;;;11.93;11.40;;;25.60;51.10;;;;;;4953007;29;20461;-70
2021/05/30 09:21:14;;;;;;;10.87;10.43;;;25.40;51.00;;;;;;4953157;29;20461;-70
2021/05/30 09:23:41;;;;;;;11.20;10.70;;;25.30;50.80;;;;;;4953271;28;20952;-70
2021/05/30 09:26:10;;;;;;;11.50;10.90;;;25.00;50.30;;;;;;4953202;29;20997;-70
2021/05/30 09:28:37;;;;;;;11.00;10.13;;;24.90;49.60;;;;;;4953140;29;20471;-70
2021/05/30 09:31:04;;;;;;;10.90;10.40;;;25.70;49.00;;;;;;4953207;29;20648;-70
2021/05/30 09:33:31;;;;;;;10.57;10.13;;;25.20;49.70;;;;;;4953204;28;20524;-72
2021/05/30 09:36:01;;;;;;;10.77;10.37;;;24.30;50.40;;;;;;4952756;28;20453;-69
2021/05/30 09:38:32;;;;;;;11.13;10.73;;;24.70;51.00;;;;;;4953013;28;20998;-69
2021/05/30 09:40:59;;;;;;;10.97;10.47;;;24.70;48.90;;;;;;4952910;29;20456;-69
2021/05/30 09:43:27;;;;;;;11.07;10.57;;;24.80;49.40;;;;;;4953008;29;20460;-69
2021/05/30 09:46:03;;;;;;;11.17;10.67;;;24.70;47.50;;;;;;4952859;29;20460;-69
2021/05/30 09:48:32;;;;;;;11.30;10.70;;;24.90;48.30;;;;;;4953148;29;20448;-70
2021/05/30 09:51:03;;;;;;;10.40;9.90;;;26.00;48.20;;;;;;4952647;28;20484;-70
2021/05/30 09:53:34;;;;;;;10.63;10.23;;;25.90;46.30;;;;;;4952874;29;20514;-69
2021/05/30 09:56:00;;;;;;;11.50;11.00;;;26.00;47.30;;;;;;4952271;29;20475;-69
2021/05/30 09:58:27;;;;;;;11.80;11.20;;;25.60;47.70;;;;;;4952528;28;21041;-69
2021/05/30 10:01:03;;;;;;;11.27;10.67;;;23.80;51.00;;;;;;4952453;28;20516;-69
2021/05/30 10:03:31;;;;;;;11.03;10.53;;;23.40;51.30;;;;;;4952467;29;20456;-70
2021/05/30 10:06:00;;;;;;;12.07;11.57;;;24.30;50.30;;;;;;4952376;28;20464;-70
2021/05/30 10:08:27;;;;;;;11.20;10.70;;;24.60;50.00;;;;;;4952527;28;20503;-69
2021/05/30 10:10:54;;;;;;;10.60;10.10;;;24.40;49.00;;;;;;4952310;28;20468;-69
2021/05/30 10:13:20;;;;;;;11.00;10.50;;;24.60;49.80;;;;;;4952523;29;20959;-70
2021/05/30 10:15:47;;;;;;;11.37;10.90;;;26.50;48.80;;;;;;4952468;28;20460;-69
2021/05/30 10:18:17;;;;;;;11.70;11.10;;;27.50;46.20;;;;;;4952548;29;20939;-70
2021/05/30 10:20:44;;;;;;;10.77;10.37;;;25.80;46.60;;;;;;4952227;29;20814;-70
2021/05/30 10:23:14;;;;;;;11.10;10.60;;;23.90;49.00;;;;;;4952462;29;20950;-69
2021/05/30 10:25:41;;;;;;;12.87;10.53;;;23.40;50.70;;;;;;4952280;29;20997;-70
2021/05/30 10:28:12;;;;;;;11.60;11.00;;;23.50;51.00;;;;;;4952389;29;20453;-70
2021/05/30 10:30:39;;;;;;;12.27;11.67;;;24.50;50.60;;;;;;4952501;29;20455;-70
2021/05/30 10:33:11;;;;;;;10.33;9.83;;;24.30;50.20;;;;;;4952086;29;20452;-70
2021/05/30 10:35:38;;;;;;;10.30;9.90;;;23.20;50.80;;;;;;4952120;28;20490;-69
2021/05/30 10:38:06;;;;;;;10.43;10.03;;;22.60;51.90;;;;;;4951843;29;20578;-69
2021/05/30 10:40:35;;;;;;;11.30;10.80;;;22.70;52.50;;;;;;4952107;29;20508;-69
2021/05/30 10:43:21;;;;;;;12.07;11.43;;;23.70;52.00;;;;;;4951907;28;20464;-69
2021/05/30 10:46:00;;;;;;;12.03;11.30;;;24.90;49.90;;;;;;4952019;28;20483;-69
2021/05/30 10:48:26;;;;;;;12.53;12.03;;;25.40;49.20;;;;;;4952049;28;20516;-69
2021/05/30 10:51:02;;;;;;;10.97;10.57;;;26.00;46.10;;;;;;4952047;28;20456;-70
2021/05/30 10:53:38;;;;;;;10.60;10.20;;;26.10;44.90;;;;;;4952285;29;20519;-70
2021/05/30 10:56:31;;;;;;;11.80;11.13;;;25.20;45.90;;;;;;4951579;29;20452;-69
2021/05/30 10:59:23;;;;;;;11.77;11.27;;;24.20;47.10;;;;;;4951816;29;20499;-70
2021/05/30 11:01:51;;;;;;;10.80;10.40;;;24.50;47.60;;;;;;4951960;29;20479;-71
2021/05/30 11:04:31;;;;;;;11.30;10.90;;;25.80;46.30;;;;;;4951863;28;20551;-71
2021/05/30 11:06:59;;;;;;;12.57;11.97;;;27.40;44.20;;;;;;4951922;29;20448;-72
2021/05/30 11:10:03;;;;;;;11.70;11.10;;;28.70;42.00;;;;;;4951975;29;20461;-70
2021/05/30 11:12:31;;;;;;;11.50;11.10;;;27.80;40.40;;;;;;4952071;29;20503;-71
2021/05/30 11:15:20;;;;;;;10.90;10.40;;;26.50;41.10;;;;;;4951850;29;20875;-70
2021/05/30 11:17:49;;;;;;;11.10;10.50;;;26.50;41.50;;;;;;4953531;28;20484;-70
2021/05/30 11:20:18;;;;;;;11.50;10.90;;;27.00;41.40;;;;;;4955805;29;20962;-71
2021/05/30 11:22:46;;;;;;;11.47;10.97;;;27.40;42.50;;;;;;4955455;28;20562;-71
2021/05/30 11:25:16;;;;;;;11.43;10.93;;;27.30;41.70;;;;;;4955613;29;20830;-71
2021/05/30 11:27:54;;;;;;;11.90;11.40;;;26.90;42.30;;;;;;4955527;28;20533;-70
2021/05/30 11:30:38;;;;;;;12.17;11.67;;;26.80;42.30;;;;;;4955413;28;20973;-70
2021/05/30 11:33:05;;;;;;;11.60;11.00;;;27.20;41.30;;;;;;4955273;28;20463;-71
2021/05/30 11:35:31;;;;;;;11.47;10.77;;;27.70;41.30;;;;;;4946202;28;21176;-70
2021/05/30 11:37:58;;;;;;;11.93;11.40;;;27.10;40.80;;;;;;4936162;29;20976;-70
2021/05/30 11:40:26;;;;;;;11.20;10.80;;;26.80;42.10;;;;;;4935983;29;20529;-70
2021/05/30 11:42:53;;;;;;;11.30;10.90;;;27.20;41.80;;;;;;4935883;29;20453;-70
2021/05/30 11:45:33;;;;;;;12.00;11.40;;;26.70;39.00;;;;;;4936180;29;20875;-70
2021/05/30 11:48:08;;;;;;;11.17;10.77;;;26.70;40.30;;;;;;4935969;29;20464;-70
2021/05/30 11:50:36;;;;;;;11.30;10.80;;;27.00;40.10;;;;;;4936098;29;20775;-70
2021/05/30 11:53:09;;;;;;;11.80;11.30;;;27.30;39.40;;;;;;4935820;29;20461;-71
2021/05/30 11:55:39;;;;;;;11.43;11.03;;;28.30;38.70;;;;;;4935939;29;20877;-71
2021/05/30 11:58:08;;;;;;;11.47;10.97;;;28.30;38.10;;;;;;4935342;29;20500;-71
2021/05/30 12:00:36;;;;;;;11.10;10.50;;;27.40;37.80;;;;;;4935821;29;20449;-70
2021/05/30 12:03:09;;;;;;;10.97;10.57;;;26.50;39.40;;;;;;4935568;29;20462;-70
2021/05/30 12:05:35;;;;;;;11.47;10.97;;;26.10;39.30;;;;;;4935859;29;20462;-70
2021/05/30 12:08:13;;;;;;;10.93;10.53;;;26.30;40.60;;;;;;4935451;29;20667;-70
2021/05/30 12:10:49;;;;;;;11.10;10.70;;;26.20;40.60;;;;;;4935813;29;20457;-71
2021/05/30 12:13:32;;;;;;;12.00;11.47;;;26.10;40.50;;;;;;4935702;29;20890;-71
2021/05/30 12:16:00;;;;;;;11.57;11.10;;;26.30;39.70;;;;;;4934141;29;20461;-70
2021/05/30 12:18:27;;;;;;;10.70;10.30;;;25.70;40.60;;;;;;4935600;29;20454;-70
2021/05/30 12:20:59;;;;;;;11.17;10.77;;;25.50;41.40;;;;;;4935329;29;20504;-71
2021/05/30 12:23:25;;;;;;;9.70;9.40;;;25.90;41.90;;;;;;4935780;29;20465;-70
2021/05/30 12:25:54;;;;;;;11.30;10.80;;;25.70;40.80;;;;;;4935159;29;20516;-70
2021/05/30 12:28:22;;;;;;;11.47;10.80;;;26.10;39.90;;;;;;4934645;29;20469;-71
2021/05/30 12:30:51;;;;;;;11.77;11.27;;;27.00;39.30;;;;;;4934621;29;20461;-71
2021/05/30 12:33:17;;;;;;;11.07;10.63;;;26.80;38.30;;;;;;4935355;29;20553;-71
2021/05/30 12:35:49;;;;;;;11.77;11.17;;;26.40;38.20;;;;;;4945587;29;20453;-70
2021/05/30 12:38:18;;;;;;;11.33;10.90;;;26.30;38.00;;;;;;4954354;29;20534;-71
2021/05/30 12:40:45;;;;;;;12.30;11.70;;;27.00;37.40;;;;;;4953916;29;20468;-71
2021/05/30 12:43:13;;;;;;;12.47;11.97;;;27.70;37.30;;;;;;4954434;29;20457;-71
2021/05/30 12:45:57;;;;;;;12.10;11.70;;;27.90;37.00;;;;;;4954230;29;20571;-70
2021/05/30 12:48:37;;;;;;;11.30;10.90;;;27.60;36.40;;;;;;4954336;28;20448;-70
2021/05/30 12:51:15;;;;;;;11.43;10.97;;;26.40;37.10;;;;;;4953895;29;20456;-72
2021/05/30 12:53:42;;;;;;;11.83;11.27;;;26.00;38.90;;;;;;4953910;29;20456;-70
2021/05/30 12:56:15;;;;;;;12.60;12.10;;;25.90;39.90;;;;;;4953677;28;20483;-70
2021/05/30 12:58:42;;;;;;;12.50;11.90;;;25.80;39.40;;;;;;4953537;28;20544;-69
2021/05/30 13:01:22;;;;;;;10.90;10.40;;;25.70;39.60;;;;;;4953950;28;20456;-70
2021/05/30 13:03:50;;;;;;;12.07;11.23;;;25.70;39.20;;;;;;4953625;28;20456;-70
2021/05/30 13:06:17;;;;;;;11.80;11.27;;;26.00;38.80;;;;;;4953557;28;20463;-70
2021/05/30 13:08:43;;;;;;;12.50;11.60;;;25.70;39.60;;;;;;4953810;28;20507;-69
2021/05/30 13:11:09;;;;;;;12.50;12.00;;;26.10;40.60;;;;;;4953785;29;20812;-69
2021/05/30 13:13:39;;;;;;;11.00;10.53;;;26.00;40.20;;;;;;4953633;29;20453;-69
2021/05/30 13:16:06;;;;;;;11.83;11.43;;;25.60;41.50;;;;;;4953215;29;20496;-70
2021/05/30 13:18:48;;;;;;;13.00;12.20;;;26.10;41.10;;;;;;4953490;28;20468;-70
2021/05/30 13:21:20;;;;;;;11.83;11.33;;;25.40;42.10;;;;;;4953494;29;20452;-70
2021/05/30 13:23:46;;;;;;;12.10;11.60;;;25.00;42.50;;;;;;4953061;29;20523;-70
2021/05/30 13:26:13;;;;;;;12.27;11.40;;;24.80;43.60;;;;;;4953170;29;20459;-69
2021/05/30 13:28:42;;;;;;;13.17;12.47;;;25.30;42.70;;;;;;4953319;29;20916;-69
2021/05/30 13:31:12;;;;;;;12.20;11.70;;;25.30;42.90;;;;;;4953224;28;20823;-70
2021/05/30 13:33:40;;;;;;;12.73;12.07;;;25.10;41.80;;;;;;4953067;29;20462;-70
2021/05/30 13:36:07;;;;;;;11.70;11.20;;;24.50;43.20;;;;;;4939314;29;20441;-69
2021/05/30 13:38:34;;;;;;;12.40;11.40;;;24.60;43.80;;;;;;4933983;29;20449;-70
2021/05/30 13:41:01;;;;;;;11.70;11.20;;;24.90;44.40;;;;;;4933666;29;20449;-69
2021/05/30 13:43:28;;;;;;;12.30;11.57;;;24.40;44.70;;;;;;4933995;29;20460;-69
2021/05/30 13:45:55;;;;;;;10.90;10.50;;;22.60;45.00;;;;;;4933677;29;20461;-69
2021/05/30 13:48:22;;;;;;;11.60;11.00;;;22.50;46.40;;;;;;4933681;29;20453;-70
2021/05/30 13:51:00;;;;;;;10.90;10.50;;;23.00;45.20;;;;;;4933405;29;20461;-70
2021/05/30 13:53:27;;;;;;;10.27;9.87;;;23.70;43.40;;;;;;4933766;29;20461;-70
2021/05/30 13:55:53;;;;;;;11.80;11.30;;;24.30;41.80;;;;;;4933254;29;20972;-70
2021/05/30 13:58:19;;;;;;;10.53;10.13;;;24.50;42.40;;;;;;4933424;29;20493;-70
2021/05/30 14:00:46;;;;;;;11.50;11.00;;;24.50;41.90;;;;;;4933395;29;20524;-70
2021/05/30 14:03:12;;;;;;;12.27;11.70;;;24.50;42.10;;;;;;4933717;29;20445;-70
2021/05/30 14:05:39;;;;;;;10.70;10.20;;;24.50;41.50;;;;;;4933693;29;20461;-70
2021/05/30 14:08:05;;;;;;;11.67;11.07;;;25.00;41.40;;;;;;4933405;29;20971;-70
2021/05/30 14:10:32;;;;;;;10.67;10.27;;;25.20;41.70;;;;;;4933300;29;20508;-70
2021/05/30 14:12:58;;;;;;;10.40;10.00;;;24.60;42.30;;;;;;4933393;29;20467;-70
2021/05/30 14:15:24;;;;;;;11.80;11.00;;;25.00;42.20;;;;;;4933518;29;20524;-70
2021/05/30 14:17:50;;;;;;;10.93;10.40;;;24.20;42.50;;;;;;4932890;29;20544;-69
2021/05/30 14:20:17;;;;;;;10.00;9.20;;;23.00;43.60;;;;;;4932996;29;20555;-69
2021/05/30 14:22:44;;;;;;;10.90;10.47;;;23.00;43.80;;;;;;4933195;29;20449;-70
2021/05/30 14:25:11;;;;;;;10.37;9.87;;;23.10;43.80;;;;;;4933204;29;20453;-69
2021/05/30 14:27:38;;;;;;;10.97;10.47;;;23.00;43.80;;;;;;4933109;29;20484;-69
2021/05/30 14:30:06;;;;;;;11.23;10.73;;;23.00;43.90;;;;;;4932941;29;20473;-70
2021/05/30 14:32:32;;;;;;;10.43;10.03;;;23.10;43.90;;;;;;4933046;29;20449;-70
2021/05/30 14:35:00;;;;;;;11.23;10.50;;;23.30;43.90;;;;;;4937448;29;20452;-70
2021/05/30 14:37:26;;;;;;;11.10;10.70;;;23.30;44.20;;;;;;4952111;29;20542;-70
2021/05/30 14:39:53;;;;;;;11.20;10.80;;;23.30;44.90;;;;;;4951850;29;20444;-69
2021/05/30 14:42:20;;;;;;;11.20;10.70;;;23.40;45.00;;;;;;4952039;29;20510;-69
2021/05/30 14:44:46;;;;;;;11.40;10.80;;;23.40;45.90;;;;;;4951753;29;20455;-69
2021/05/30 14:47:12;;;;;;;10.97;10.47;;;23.40;46.00;;;;;;4951992;29;20459;-72
2021/05/30 14:49:39;;;;;;;10.90;10.20;;;23.70;47.10;;;;;;4951966;28;20973;-70
2021/05/30 14:52:06;;;;;;;11.53;10.87;;;23.80;45.30;;;;;;4951094;28;20515;-70
2021/05/30 14:54:32;;;;;;;10.83;10.20;;;23.20;45.10;;;;;;4951788;29;20456;-69
2021/05/30 14:56:59;;;;;;;10.50;10.07;;;22.60;46.30;;;;;;4951370;28;20497;-70
2021/05/30 14:59:26;;;;;;;10.83;10.33;;;22.00;47.60;;;;;;4951830;28;20535;-69
2021/05/30 15:01:52;;;;;;;10.33;9.90;;;21.90;47.90;;;;;;4951795;28;20511;-69
2021/05/30 15:04:18;;;;;;;10.10;9.70;;;21.70;47.30;;;;;;4951957;28;20452;-69
2021/05/30 15:06:47;;;;;;;10.73;10.23;;;21.60;47.70;;;;;;4951880;28;20465;-69
2021/05/30 15:09:13;;;;;;;10.10;9.70;;;21.60;47.70;;;;;;4951469;29;20548;-70
2021/05/30 15:11:40;;;;;;;10.67;10.07;;;21.70;48.50;;;;;;4951802;29;20797;-69
2021/05/30 15:14:07;;;;;;;10.10;9.60;;;21.70;47.70;;;;;;4951625;29;20456;-69
2021/05/30 15:16:33;;;;;;;10.27;9.57;;;21.10;48.20;;;;;;4951724;29;20456;-69
2021/05/30 15:18:59;;;;;;;10.87;10.37;;;20.80;48.70;;;;;;4951416;29;20464;-69
2021/05/30 15:21:26;;;;;;;10.97;10.50;;;20.70;49.30;;;;;;4951882;29;20480;-70
2021/05/30 15:23:52;;;;;;;9.97;9.50;;;20.70;48.20;;;;;;4951454;28;20494;-69
2021/05/30 15:26:18;;;;;;;10.83;10.40;;;20.80;48.70;;;;;;4951735;28;20459;-70
2021/05/30 15:28:44;;;;;;;10.17;9.77;;;20.80;49.00;;;;;;4951377;28;20460;-70
2021/05/30 15:31:11;;;;;;;11.10;10.50;;;20.80;48.20;;;;;;4951823;28;20460;-70